ADDS METAR Data

Data at: 1027 UTC 20 Jul 2018

METAR for:KSDL (Scottsdale Muni, AZ, US)
Text:KSDL 200953Z AUTO 00000KT 10SM CLR 33/17 A2987 RMK AO2 SLP082 T03280172
Temperature: 32.8°C ( 91°F)
Dewpoint: 17.2°C ( 63°F) [RH = 39%]
Pressure (altimeter):29.87 inches Hg (1011.6 mb) [Sea level pressure: 1008.2 mb]
Winds:calm
Visibility:10 or more sm (16+ km)
Ceiling:at least 12,000 feet AGL
Clouds:sky clear below 12,000 feet AGL
QC Flag:automated observation with no human augmentation